Karnes City, TX (78118)

10:43 AM CST on February 19, 2017 (GMT -0600)
Karnes County | | Change Station

Elev 381 ft 28.88 °N, 97.86 °W | Updated 22 seconds ago

Overcast
Overcast
75.2 °F
Feels Like 75 °F
N
21.0
Wind Variable Wind from East
Gusts 24.0 mph

Today
High -- | Low -- °F
--% Chance of Precip.
Yesterday
High -- | Low -- °F
Precip. -- in
Pressure 29.84 in
Visibility 10.0 miles
Clouds Mostly Cloudy 1300 ft
Overcast 1900 ft
Heat Index 75 °F
Dew Point 70 °F
Humidity 85%
Rainfall 0.00 in
Snow Depth Not available.
7:06 AM 6:24 PM
Last Quarter, 42% visible
METAR KBEA 191635Z AUTO 15016G22KT 10SM BKN013 OVC019 25/23 A2984 RMK AO2 T02500233
Pressure 29.84 in
Visibility 10.0 miles
Clouds Mostly Cloudy 1300 ft
Overcast 1900 ft
Heat Index 75 °F
Dew Point 70 °F
Humidity 85%
Rainfall 0.00 in
Snow Depth Not available.
7:06 AM 6:24 PM
Last Quarter, 42% visible
METAR KBEA 191635Z AUTO 15016G22KT 10SM BKN013 OVC019 25/23 A2984 RMK AO2 T02500233

Get Your Daily Forecast Email!

Thanks for signing up!

Be on the lookout for a verification email in your inbox.

You'll start receiving the daily forecast at 8 AM.

×

10-Day Weather Forecast

Almanac

Astronomy

Feb. 19, 2017 Rise Set
Actual Time
Civil Twilight
Nautical Twilight
Astronomical Twilight
Moon
Length of Visible Light
Length of Day
Tomorrow will be .
, % of the Moon is Illuminated

Today's Extremes

State Highs State Lows

Community

WunderPhotos

Upload Photos

1,962,540 photos uploaded!

WunderBlog® & News

Nearby

Air Quality

  Air Quality AQ Index Pollutant
Not available.

Snow Depth

Station Depth Elevation

Earthquake Activity

City Distance Mag. Time & Date
Minimum magnitude displayed is 2.5.

Coastal Water Temperatures

Place Temperature

Stations

Nearby Weather Stations

Station Location Temp. Windchill Dew Point Humidity Wind Precip. Elev Updated Type
                   

Watches & Warnings

There are currently no watches in effect.